6R3 weather

Cleveland Municipal Airport
Cleveland, Texas, United States

Public forecast

Using degrees Fahrenheit for public forecast. Weather courtesy of forecast.io.

METAR (pilot weather report)

Retrieved 2019/09/21 01:35 UTC (19 minutes ago):

K6R3 210135Z AUTO 00000KT 7SM SCT120 24/24 A3004 RMK AO2 T02420236

TAF (pilot weather forecast)

Forecast is more than 12 hours old.

Closest forecast is Conroe-North Houston Regional Airport, 21.1 nm (39.0 km) W. Retrieved 2019/09/20 00:24 UTC (1 day ago):

TAF KCXO 202322Z 2100/2124 14003KT P6SM VCSH SCT035 BKN070 TEMPO 2100/2101 6SM SHRA BKN035 FM210300 13011KT P6SM SCT025 FM210900 14006KT P6SM SCT015 BKN025 FM211600 13011KT P6SM SCT025 BKN035 PROB30 2117/2121 SHRA